Latest Weather Observations for Ballarat

IDV60801

Issued at 5:31 am EST Thursday 28 May 2015 (issued every 30 minutes, with the page automatically refreshed every 10 minutes)

About weather observations | Map of weather stations | Latest weather observations for VIC | Other Formats
Station Details ID: 089002 Name: BALLARAT AERODROME Lat: -37.51 Lon: 143.79 Height: 435.2 m
Data from the previous 72 hours. | See also: Recent months at Ballarat
Date/Time
EST
Temp
°C
App
Temp
°C
Dew
Point
Rel
Hum
%
Delta-T
°C
Wind Press
QNH
hPa
Press
MSL
hPa
Rain
since 9 am
mm
Dir
 
Spd
km/h
Gust
km/h
Spd
kts
Gust
kts
28/05:30am 7.8 3.7 7.7 99 0.0 N 19 26 10 14 1017.2 1017.4 0.0
28/05:00am 7.8 3.5 7.7 99 0.0 N 20 26 11 14 1017.5 1017.8 0.0
28/04:30am 7.3 3.0 7.2 99 0.0 NNE 19 24 10 13 1017.5 1017.8 0.0
28/04:00am 7.4 3.2 7.3 99 0.0 NNW 19 24 10 13 1017.5 1017.8 0.0
28/03:30am 7.4 3.5 7.3 99 0.0 N 17 20 9 11 1017.3 1017.6 0.0
28/03:00am 7.6 2.8 7.3 98 0.1 N 22 28 12 15 1017.7 1018.0 0.0
28/02:30am 8.9 4.8 8.6 98 0.1 N 20 28 11 15 1017.9 1018.2 0.0
28/02:00am 8.3 4.6 8.0 98 0.1 N 17 19 9 10 1018.2 1018.4 0.0
28/01:30am 8.6 4.6 8.3 98 0.1 N 19 22 10 12 1018.2 1018.4 0.0
28/01:00am 9.0 4.9 8.7 98 0.1 N 20 28 11 15 1018.4 1018.6 0.0
28/12:30am 9.4 6.6 8.6 95 0.4 N 13 17 7 9 1018.6 1018.8 0.0
28/12:00am 10.2 5.5 9.1 93 0.6 NNE 24 28 13 15 1018.6 1018.8 0.0
 
Date/Time
EST
Temp
°C
App
Temp
°C
Dew
Point
Rel
Hum
%
Delta-T
°C
Wind Press
QNH
hPa
Press
MSL
hPa
Rain
since 9 am
mm
Dir
 
Spd
km/h
Gust
km/h
Spd
kts
Gust
kts
27/11:30pm 10.3 6.4 9.5 95 0.4 NNE 20 26 11 14 1018.9 1019.1 0.0
27/11:00pm 10.8 7.3 10.2 96 0.3 N 19 24 10 13 1019.0 1019.2 0.0
27/10:30pm 10.2 7.0 9.9 98 0.2 N 17 24 9 13 1019.2 1019.4 0.0
27/10:00pm 8.8 5.2 8.5 98 0.1 N 17 20 9 11 1019.3 1019.6 0.0
27/09:30pm 8.2 4.9 7.9 98 0.1 NW 15 19 8 10 1019.1 1019.3 0.0
27/09:00pm 10.2 7.6 9.4 95 0.4 N 13 17 7 9 1019.0 1019.2 0.0
27/08:30pm 10.8 7.8 9.2 90 0.8 NNE 15 22 8 12 1018.9 1019.1 0.0
27/08:00pm 10.8 6.8 9.2 90 0.8 NNE 20 26 11 14 1018.9 1019.1 0.0
27/07:30pm 10.9 7.1 9.2 89 0.9 N 19 26 10 14 1019.0 1019.2 0.0
27/07:00pm 10.6 7.1 8.9 89 0.9 N 17 22 9 12 1019.0 1019.2 0.0
27/06:30pm 11.5 7.5 9.2 86 1.2 N 20 24 11 13 1018.9 1019.1 0.0
27/06:00pm 11.4 7.4 9.0 85 1.2 N 20 26 11 14 1018.6 1018.8 0.0
27/05:30pm 11.6 7.6 9.0 84 1.3 NNE 20 22 11 12 1018.4 1018.6 0.0
27/05:00pm 12.2 8.2 9.0 81 1.6 N 20 26 11 14 1018.4 1018.6 0.0
27/04:30pm 13.2 9.3 9.5 78 1.9 NNE 20 28 11 15 1018.3 1018.5 0.0
27/04:00pm 13.8 9.2 9.5 75 2.2 N 24 30 13 16 1018.4 1018.6 0.0
27/03:30pm 14.0 8.5 9.2 73 2.5 N 28 37 15 20 1018.4 1018.6 0.0
27/03:00pm 14.5 8.7 9.5 72 2.6 N 30 37 16 20 1018.2 1018.4 0.0
27/02:30pm 14.5 8.3 9.5 72 2.6 N 32 39 17 21 1018.0 1018.3 0.0
27/02:00pm 13.9 7.6 9.1 73 2.5 N 32 39 17 21 1018.4 1018.6 0.0
27/01:30pm 13.9 8.2 9.7 76 2.2 N 30 37 16 20 1018.6 1018.8 0.0
27/01:00pm 12.9 7.0 9.2 78 1.9 N 30 39 16 21 1018.9 1019.1 0.0
27/12:46pm 13.7 8.5 10.1 79 1.9 N 28 39 15 21 1019.1 1019.3 0.0
27/12:30pm 12.7 7.0 9.7 82 1.6 NNE 30 37 16 20 1019.2 1019.4 0.0
27/12:00pm 12.2 6.9 9.9 86 1.2 N 28 35 15 19 1020.0 1020.3 0.0
27/11:33am 11.2 4.9 8.9 86 1.2 N 32 37 17 20 1020.3 1020.6 0.0
27/11:30am 10.8 4.4 8.6 86 1.1 N 32 39 17 21 1020.4 1020.7 0.0
27/11:00am 10.6 4.3 9.0 90 0.8 N 32 39 17 21 1020.7 1020.9 0.0
27/10:30am 9.7 3.3 8.6 93 0.6 N 32 39 17 21 1020.7 1020.9 0.0
27/10:00am 9.7 4.1 8.6 93 0.5 NNE 28 35 15 19 1020.9 1021.1 0.0
27/09:30am 9.4 3.3 8.3 93 0.5 NNE 30 35 16 19 1020.9 1021.1 0.0
27/09:00am 8.9 3.1 8.0 94 0.4 NNE 28 35 15 19 1020.7 1020.9 0.0
27/08:30am 8.5 3.3 7.3 92 0.6 N 24 30 13 16 1021.0 1021.2 0.0
27/08:00am 8.4 4.1 6.9 90 0.7 N 19 24 10 13 1021.0 1021.2 0.0
27/07:30am 8.3 3.7 6.4 88 0.9 NNE 20 24 11 13 1020.8 1021.0 0.0
27/07:00am 8.2 3.4 5.5 83 1.2 N 20 26 11 14 1020.7 1020.9 0.0
27/06:30am 8.9 3.7 5.6 80 1.5 NNE 22 28 12 15 1020.3 1020.6 0.0
27/06:00am 8.8 4.0 5.7 81 1.4 NNE 20 24 11 13 1020.6 1020.8 0.0
27/05:30am 8.7 4.1 5.6 81 1.4 NNE 19 22 10 12 1020.6 1020.8 0.0
27/05:00am 9.4 3.9 5.8 78 1.7 NNE 24 32 13 17 1020.4 1020.7 0.0
27/04:30am 9.7 4.6 6.1 78 1.7 NNE 22 28 12 15 1020.8 1021.0 0.0
27/04:00am 9.6 4.6 6.3 80 1.6 NNE 22 28 12 15 1020.9 1021.1 0.0
27/03:30am 9.4 4.4 6.5 82 1.4 NNE 22 26 12 14 1021.2 1021.4 0.0
27/03:00am 9.6 4.6 6.5 81 1.5 NNE 22 30 12 16 1021.5 1021.8 0.0
27/02:30am 9.6 4.6 6.5 81 1.5 NNE 22 28 12 15 1021.9 1022.2 0.0
27/02:00am 9.6 4.2 6.5 81 1.5 NNE 24 32 13 17 1021.9 1022.2 0.0
27/01:30am 9.2 4.6 6.5 83 1.3 NNE 20 26 11 14 1022.2 1022.5 0.0
27/01:00am 8.6 4.5 6.4 86 1.0 NNE 17 20 9 11 1022.6 1022.9 0.0
27/12:30am 8.5 4.8 6.3 86 1.0 NNE 15 24 8 13 1023.0 1023.2 0.0
27/12:00am 7.8 4.5 6.3 90 0.7 N 13 17 7 9 1023.3 1023.6 0.0
 
Date/Time
EST
Temp
°C
App
Temp
°C
Dew
Point
Rel
Hum
%
Delta-T
°C
Wind Press
QNH
hPa
Press
MSL
hPa
Rain
since 9 am
mm
Dir
 
Spd
km/h
Gust
km/h
Spd
kts
Gust
kts
26/11:30pm 7.6 3.4 5.9 89 0.8 N 17 19 9 10 1023.6 1023.9 0.0
26/11:00pm 8.7 5.3 5.8 82 1.3 NNE 13 20 7 11 1023.9 1024.2 0.0
26/10:30pm 9.2 5.1 6.3 82 1.4 NNE 17 26 9 14 1023.8 1024.1 0.0
26/10:00pm 9.5 4.0 6.0 79 1.6 NNE 24 30 13 16 1023.6 1023.9 0.0
26/09:30pm 9.8 4.4 6.2 78 1.7 NNE 24 30 13 16 1023.9 1024.2 0.0
26/09:00pm 9.6 4.9 6.1 79 1.6 NNE 20 24 11 13 1024.1 1024.4 0.0
26/08:30pm 9.3 4.8 6.2 81 1.5 NNE 19 24 10 13 1024.0 1024.3 0.0
26/08:00pm 9.4 5.3 6.1 80 1.6 N 17 22 9 12 1024.2 1024.5 0.0
26/07:30pm 9.4 5.3 6.1 80 1.6 N 17 22 9 12 1024.1 1024.4 0.0
26/07:00pm 9.6 4.9 6.0 78 1.7 N 20 24 11 13 1024.1 1024.4 0.0
26/06:30pm 10.6 6.0 6.4 75 2.0 NNE 20 28 11 15 1024.2 1024.5 0.0
26/06:00pm 10.2 5.7 6.9 80 1.6 NNE 20 24 11 13 1024.4 1024.7 0.0
26/05:30pm 10.4 6.4 6.5 77 1.9 N 17 22 9 12 1024.4 1024.7 0.0
26/05:00pm 11.5 7.0 7.0 74 2.2 N 20 26 11 14 1024.4 1024.7 0.0
26/04:30pm 12.5 8.2 7.8 73 2.4 N 20 28 11 15 1024.4 1024.7 0.0
26/04:00pm 12.6 8.3 7.9 73 2.4 N 20 26 11 14 1024.6 1024.9 0.0
26/03:30pm 12.0 7.6 7.5 74 2.2 N 20 24 11 13 1024.9 1025.2 0.0
26/03:00pm 12.4 8.7 7.9 74 2.2 NNE 17 20 9 11 1024.8 1025.1 0.0
26/02:30pm 12.1 8.3 7.6 74 2.2 NNE 17 22 9 12 1025.1 1025.5 0.0
26/02:00pm 11.8 7.6 7.5 75 2.1 NNE 19 20 10 11 1025.3 1025.7 0.0
26/01:30pm 11.6 7.8 7.5 76 2.0 NNE 17 22 9 12 1025.9 1026.2 0.0
26/01:00pm 11.2 6.9 7.7 79 1.7 N 20 24 11 13 1026.3 1026.6 0.0
26/12:30pm 10.8 7.1 8.0 83 1.4 NNE 17 20 9 11 1026.4 1026.7 0.0
26/12:00pm 10.4 6.7 7.8 84 1.3 N 17 20 9 11 1027.0 1027.3 0.0
26/11:30am 11.1 8.6 8.0 81 1.5 NNE 11 15 6 8 - - 0.0
26/11:00am 10.7 7.0 7.8 82 1.4 NNE 17 20 9 11 - - 0.0
26/10:30am 9.9 6.1 7.7 86 1.1 NNE 17 20 9 11 - - 0.0
26/10:00am 9.3 6.9 8.7 96 0.3 N 11 17 6 9 - - 0.0
26/09:30am 7.8 5.9 7.5 98 0.1 ENE 7 9 4 5 - - 0.0
26/09:00am 6.4 4.2 6.3 99 0.0 ENE 7 9 4 5 - - 0.0
26/08:30am 3.6 1.1 3.5 99 0.0 ENE 6 7 3 4 - - -
26/08:00am 2.2 -0.6 2.1 99 0.0 ENE 6 9 3 5 - - -
26/07:30am -0.3 -4.1 -0.4 99 0.0 NE 9 9 5 5 - - -
26/07:20am -0.3 -3.7 -0.4 99 0.0 ENE 7 9 4 5 - - -
26/07:00am -0.1 -3.4 -0.2 99 0.0 ENE 7 7 4 4 - - -
26/06:41am -0.1 -2.5 -0.2 99 0.0 ESE 2 7 1 4 - - -
26/06:38am 0.0 -2.0 -0.1 99 0.0 CALM 0 0 0 0 - - -
26/06:30am -0.3 -2.3 -0.4 99 0.0 CALM 0 4 0 2 - - -
26/06:16am -0.4 -3.6 -0.5 99 0.0 ESE 6 7 3 4 - - -
26/06:00am -0.2 -3.0 -0.3 99 0.0 ESE 4 6 2 3 - - -
26/05:30am -0.3 -3.7 -0.4 99 0.0 NNE 7 9 4 5 - - -
26/05:00am 0.0 -2.0 -0.1 99 0.0 CALM 0 0 0 0 - - -
26/04:48am 0.2 -1.8 0.1 99 0.0 CALM 0 0 0 0 - - -
26/04:30am 0.5 -2.6 0.4 99 0.0 E 6 7 3 4 - - -
26/04:06am -0.3 -3.5 -0.4 99 0.0 ESE 6 7 3 4 - - -
26/04:04am 0.0 -3.1 -0.1 99 0.0 E 6 6 3 3 - - -
26/04:00am -0.2 -3.4 -0.3 99 0.0 E 6 6 3 3 - - -
26/03:48am -0.2 -3.4 -0.3 99 0.0 E 6 7 3 4 - - -
26/03:30am 1.2 -0.6 1.1 99 0.0 CALM 0 6 0 3 - - -
26/03:00am 1.2 -2.3 1.1 99 0.0 NNE 9 11 5 6 - - 0.0
26/02:48am 0.3 -3.8 0.0 98 0.1 NE 11 13 6 7 - - -
26/02:30am 1.1 -2.4 1.0 99 0.0 NE 9 11 5 6 - - -
26/02:28am 1.0 -2.6 0.7 98 0.1 NE 9 11 5 6 - - -
26/02:00am 0.4 -3.3 0.1 98 0.1 NE 9 9 5 5 - - -
26/01:30am 0.7 -2.9 0.4 98 0.1 NE 9 9 5 5 - - -
26/01:00am 2.3 -0.7 2.2 99 0.0 ENE 7 9 4 5 - - -
26/12:30am 3.1 0.2 2.8 98 0.1 ENE 7 9 4 5 - - -
26/12:00am 1.8 -1.3 1.5 98 0.1 NE 7 9 4 5 - - -
 
Date/Time
EST
Temp
°C
App
Temp
°C
Dew
Point
Rel
Hum
%
Delta-T
°C
Wind Press
QNH
hPa
Press
MSL
hPa
Rain
since 9 am
mm
Dir
 
Spd
km/h
Gust
km/h
Spd
kts
Gust
kts
25/11:30pm 1.9 -1.0 1.6 98 0.1 ENE 6 7 3 4 - - -
25/11:00pm 2.0 -1.0 1.7 98 0.1 NE 7 7 4 4 - - -
25/10:30pm 2.4 0.0 2.1 98 0.1 E 4 6 2 3 - - -
25/10:00pm 4.8 2.4 4.5 98 0.1 ENE 6 7 3 4 - - -
25/09:30pm 4.7 2.1 4.4 98 0.1 ENE 7 9 4 5 - - -
25/09:00pm 4.4 1.8 4.1 98 0.1 NE 7 9 4 5 - - 0.0
25/08:30pm 4.3 1.7 4.0 98 0.1 NE 7 7 4 4 - - -
25/08:00pm 5.7 3.5 5.4 98 0.1 E 6 7 3 4 - - -
25/07:30pm 5.2 2.3 4.9 98 0.1 NE 9 11 5 6 - - -
25/07:00pm 5.5 2.2 4.5 93 0.4 NE 11 11 6 6 - - -
25/06:30pm 6.2 2.8 4.2 87 0.9 NNE 11 11 6 6 - - -
25/06:00pm 7.2 3.8 4.2 81 1.3 NNE 11 11 6 6 - - -
25/05:30pm 8.5 5.5 4.3 75 1.9 NE 9 11 5 6 - - -
25/05:00pm 10.5 7.4 5.5 71 2.4 NNE 11 13 6 7 - - -
25/04:30pm 12.2 9.2 6.0 66 3.0 N 11 15 6 8 - - -
25/04:00pm 13.0 10.0 5.9 62 3.4 N 11 15 6 8 - - -
25/03:30pm 13.1 9.7 5.8 61 3.5 NNW 13 17 7 9 - - -
25/03:00pm 13.1 9.3 5.8 61 3.5 N 15 20 8 11 - - -
25/02:30pm 12.9 9.1 5.8 62 3.4 N 15 20 8 11 - - -
25/02:00pm 12.7 8.5 5.8 63 3.3 N 17 20 9 11 - - -
25/01:30pm 12.7 8.1 5.6 62 3.4 N 19 24 10 13 - - -
25/01:00pm 12.5 8.4 6.1 65 3.1 N 17 22 9 12 - - -
25/12:30pm 11.9 7.4 6.0 67 2.8 N 19 24 10 13 - - -
25/12:00pm 11.3 6.7 5.8 69 2.6 N 19 24 10 13 - - 0.0
25/11:30am 11.0 6.3 6.0 71 2.4 N 20 24 11 13 - - 0.0
25/11:00am 10.3 5.8 6.3 76 1.9 N 19 24 10 13 - - 0.0
25/10:30am 9.4 4.6 5.6 77 1.8 NNE 20 28 11 15 - - 0.0
25/10:00am 8.7 4.5 5.8 82 1.4 NNE 17 22 9 12 - - 0.0
25/09:30am 8.3 4.9 6.1 86 1.0 N 13 17 7 9 - - 0.0
25/09:00am 8.2 5.2 6.0 86 1.0 NNE 11 13 6 7 - - 0.0
25/08:30am 7.0 4.4 6.1 94 0.4 NNE 9 11 5 6 - - 0.0
25/08:00am 6.4 3.7 5.7 95 0.3 NNE 9 11 5 6 - - 0.0
25/07:30am 6.3 2.9 5.9 97 0.2 NNE 13 15 7 8 - - 0.0
25/07:00am 6.4 3.3 5.7 95 0.3 N 11 13 6 7 - - 0.0
25/06:30am 6.5 3.5 5.8 95 0.3 N 11 13 6 7 - - 0.0
25/06:00am 6.3 2.9 6.0 98 0.1 NNE 13 17 7 9 - - 0.0

Other Formats:

Comma delimited format used in spreadsheet applications
http://www.bom.gov.au/fwo/IDV60801/IDV60801.94852.axf

JavaScript Object Notation format (JSON) in row-major order
http://www.bom.gov.au/fwo/IDV60801/IDV60801.94852.json